»·PEaware :: UAL5288 KABQ-KPRC

UAL5288 :: KABQ-KPRC

FLIGHT INFORMATION

Flight Status: Arrived
Operator:
United Airlines
More flights by this operator :: More flights under this callsign
Pilot: Utku A. (15598)
Aircraft: BOEING 737-800
(B738)
More flights by this aircraft type
Origin: KABQ Albuquerque Intl Sunport
United States
Destination: KPRC Love
United States
More flights between these airports :: More routes between these airports
Route: RDRNR3 ZUN J6 DRK
File this flight plan on PilotEdge
Remarks:
Altitude:
(Current/Filed)
28,000ft
Speed:
(Current/Filed)
423kts
Departed: 02-Aug-18 04:57 PM
Arrived: 02-Aug-18 06:24 PM
Distance/Time
Traveled:
287nm/1:27
Distance/Time
To Go:
Arrived

Flight Plot

Page will automatically refresh every two minutes.

Flight plan parsing failed; only flown route is shown


Map Options




Map Legend


Flown Route
Filed Route
Departure Airport
Arrival Airport
Navaid (VOR, NDB)
Fix

Horizontal Profiles

Position Reports

Time Latitude Longitude Heading Altitude Ground
Speed
02-Aug-18 16:06 35.046893 -106.616919 11 5312ft 0kts
02-Aug-18 16:07 35.046893 -106.616919 11 5312ft 0kts
02-Aug-18 16:08 35.046893 -106.616919 11 5312ft 0kts
02-Aug-18 16:09 35.046893 -106.616919 11 5312ft 0kts
02-Aug-18 16:10 35.046893 -106.616919 11 5312ft 0kts
02-Aug-18 16:11 35.046893 -106.616919 11 5312ft 0kts
02-Aug-18 16:12 35.046893 -106.616919 11 5312ft 0kts
02-Aug-18 16:13 35.046893 -106.616919 11 5312ft 0kts
02-Aug-18 16:14 35.046893 -106.616919 11 5312ft 0kts
02-Aug-18 16:15 35.046893 -106.616919 11 5312ft 0kts
02-Aug-18 16:16 35.046893 -106.616919 11 5312ft 0kts
02-Aug-18 16:17 35.046893 -106.616919 11 5312ft 0kts
02-Aug-18 16:18 35.046893 -106.616919 11 5312ft 0kts
02-Aug-18 16:19 35.046893 -106.616919 11 5312ft 0kts
02-Aug-18 16:20 35.046893 -106.616919 11 5312ft 0kts
02-Aug-18 16:21 35.046893 -106.616919 11 5312ft 0kts
02-Aug-18 16:22 35.046893 -106.616919 11 5312ft 0kts
02-Aug-18 16:23 35.046893 -106.616919 11 5312ft 0kts
02-Aug-18 16:24 35.046893 -106.616919 11 5312ft 0kts
02-Aug-18 16:25 35.046893 -106.616919 11 5312ft 0kts
02-Aug-18 16:26 35.046893 -106.616919 11 5312ft 0kts
02-Aug-18 16:27 35.046893 -106.616919 11 5312ft 0kts
02-Aug-18 16:28 35.046893 -106.616919 11 5312ft 0kts
02-Aug-18 16:29 35.046893 -106.616919 11 5312ft 0kts
02-Aug-18 16:30 35.046893 -106.616919 11 5312ft 0kts
02-Aug-18 16:31 35.046457 -106.616610 285 5313ft 2kts
02-Aug-18 16:32 35.046444 -106.616163 271 5314ft 0kts
02-Aug-18 16:33 35.046444 -106.616163 271 5314ft 0kts
02-Aug-18 16:34 35.046444 -106.616163 271 5314ft 0kts
02-Aug-18 16:35 35.046444 -106.616163 271 5314ft 0kts
02-Aug-18 16:36 35.046444 -106.616163 271 5314ft 0kts
02-Aug-18 16:37 35.046439 -106.616830 268 5313ft 8kts
02-Aug-18 16:38 35.046341 -106.619534 250 5308ft 0kts
02-Aug-18 16:39 35.046339 -106.619544 250 5308ft 0kts
02-Aug-18 16:40 35.046339 -106.619544 250 5308ft 0kts
02-Aug-18 16:41 35.046338 -106.619549 249 5308ft 0kts
02-Aug-18 16:42 35.046336 -106.619559 254 5308ft 0kts
02-Aug-18 16:43 35.046341 -106.619603 287 5308ft 0kts
02-Aug-18 16:44 35.046341 -106.619603 287 5308ft 0kts
02-Aug-18 16:45 35.046341 -106.619603 287 5308ft 0kts
02-Aug-18 16:46 35.046341 -106.619603 287 5308ft 0kts
02-Aug-18 16:47 35.046341 -106.619603 287 5308ft 0kts
02-Aug-18 16:48 35.046341 -106.619603 287 5308ft 0kts
02-Aug-18 16:49 35.046341 -106.619603 287 5308ft 0kts
02-Aug-18 16:50 35.046341 -106.619603 287 5308ft 0kts
02-Aug-18 16:51 35.046341 -106.619603 287 5308ft 0kts
02-Aug-18 16:52 35.046341 -106.619603 287 5308ft 0kts
02-Aug-18 16:53 35.046341 -106.619603 287 5308ft 0kts
02-Aug-18 16:54 35.046360 -106.619649 305 5307ft 0kts
02-Aug-18 16:55 35.046336 -106.619569 178 5308ft 4kts
02-Aug-18 16:56 35.045334 -106.621343 201 5301ft 4kts
02-Aug-18 16:57 35.044380 -106.621124 110 5303ft 4kts
02-Aug-18 16:58 35.044202 -106.599449 92 5323ft 150kts
02-Aug-18 16:59 35.044158 -106.592105 89 5329ft 0kts
02-Aug-18 17:00 35.044158 -106.592105 89 5329ft 0kts
02-Aug-18 17:01 35.044158 -106.592097 88 5329ft 0kts
02-Aug-18 17:02 35.044158 -106.592098 89 5329ft 0kts
02-Aug-18 17:03 35.044158 -106.592098 89 5329ft 0kts
02-Aug-18 17:05 35.045768 -106.591520 295 5329ft 9kts
02-Aug-18 17:06 35.045854 -106.596250 269 5326ft 12kts
02-Aug-18 17:07 35.046402 -106.599349 288 5323ft 9kts
02-Aug-18 17:08 35.046489 -106.602242 269 5323ft 7kts
02-Aug-18 17:09 35.046491 -106.603022 270 5323ft 0kts
02-Aug-18 17:10 35.046491 -106.603022 269 5323ft 0kts
02-Aug-18 17:11 35.046491 -106.603022 269 5323ft 0kts
02-Aug-18 17:12 35.046491 -106.603022 269 5323ft 0kts
02-Aug-18 17:13 35.046491 -106.603022 269 5323ft 0kts
02-Aug-18 17:14 35.046491 -106.603022 269 5323ft 0kts
02-Aug-18 17:15 35.046491 -106.603022 269 5323ft 0kts
02-Aug-18 17:16 35.046491 -106.603022 269 5323ft 0kts
02-Aug-18 17:17 35.046491 -106.603022 269 5323ft 0kts
02-Aug-18 17:18 35.046491 -106.603022 269 5323ft 0kts
02-Aug-18 17:19 35.046491 -106.603022 269 5323ft 0kts
02-Aug-18 17:20 35.046491 -106.603022 269 5323ft 0kts
02-Aug-18 17:21 35.046491 -106.603022 269 5323ft 0kts
02-Aug-18 17:22 35.046491 -106.603022 269 5323ft 0kts
02-Aug-18 17:23 35.046491 -106.603022 269 5323ft 0kts
02-Aug-18 17:24 35.046491 -106.603022 269 5323ft 0kts
02-Aug-18 17:25 35.046491 -106.603022 269 5323ft 0kts
02-Aug-18 17:26 35.046491 -106.603022 269 5323ft 0kts
02-Aug-18 17:27 35.046491 -106.603022 269 5323ft 0kts
02-Aug-18 17:28 35.046491 -106.603096 269 5323ft 0kts
02-Aug-18 17:29 35.046513 -106.605759 270 5323ft 19kts
02-Aug-18 17:30 35.045850 -106.610685 245 5319ft 10kts
02-Aug-18 17:31 35.045566 -106.615716 269 5315ft 20kts
02-Aug-18 17:32 35.045356 -106.621332 206 5302ft 9kts
02-Aug-18 17:33 35.044330 -106.619186 91 5311ft 49kts
02-Aug-18 17:34 35.044460 -106.574785 91 5729ft 184kts
02-Aug-18 17:35 35.056766 -106.512607 19 6834ft 243kts
02-Aug-18 17:36 35.097390 -106.567926 266 8052ft 279kts
02-Aug-18 17:37 35.094550 -106.664374 265 10252ft 298kts
02-Aug-18 17:38 35.092395 -106.771862 276 12027ft 328kts
02-Aug-18 17:39 35.108833 -106.882525 276 15060ft 335kts
02-Aug-18 17:40 35.093268 -106.995300 257 17641ft 347kts
02-Aug-18 17:41 35.069625 -107.111804 258 19889ft 360kts
02-Aug-18 17:42 35.045251 -107.231785 258 20182ft 361kts
02-Aug-18 17:43 35.034177 -107.354175 269 22018ft 369kts
02-Aug-18 17:44 35.030362 -107.480426 269 23933ft 378kts
02-Aug-18 17:45 35.026259 -107.610009 270 25641ft 388kts
02-Aug-18 17:46 35.021860 -107.742478 269 27065ft 400kts
02-Aug-18 17:47 35.017136 -107.879365 269 28266ft 407kts
02-Aug-18 17:48 35.012167 -108.020232 269 28267ft 425kts
02-Aug-18 17:49 35.006749 -108.166724 269 28267ft 440kts
02-Aug-18 17:50 35.001012 -108.317706 269 28264ft 450kts
02-Aug-18 17:51 34.994994 -108.470326 269 28265ft 452kts
02-Aug-18 17:52 34.988783 -108.623344 269 28263ft 452kts
02-Aug-18 17:53 34.982435 -108.773134 268 28265ft 447kts
02-Aug-18 17:54 34.975900 -108.924782 268 28265ft 449kts
02-Aug-18 17:55 34.969182 -109.076316 268 28260ft 452kts
02-Aug-18 17:56 34.961066 -109.229053 263 28245ft 445kts
02-Aug-18 17:57 34.951068 -109.379227 263 28238ft 446kts
02-Aug-18 17:58 34.940828 -109.530060 263 28234ft 448kts
02-Aug-18 17:59 34.930351 -109.681479 263 28018ft 452kts
02-Aug-18 18:00 34.935775 -109.832464 275 26452ft 449kts
02-Aug-18 18:01 34.950639 -109.982326 273 25185ft 449kts
02-Aug-18 18:02 34.938451 -110.133134 260 24191ft 449kts
02-Aug-18 18:03 34.921416 -110.284958 260 22941ft 455kts
02-Aug-18 18:04 34.904199 -110.436768 260 21125ft 450kts
02-Aug-18 18:05 34.889359 -110.566724 260 19699ft 400kts
02-Aug-18 18:06 34.874187 -110.697878 260 18320ft 392kts
02-Aug-18 18:07 34.859111 -110.826759 260 16934ft 382kts
02-Aug-18 18:08 34.844187 -110.953060 261 15540ft 374kts
02-Aug-18 18:09 34.829320 -111.077756 261 14371ft 371kts
02-Aug-18 18:10 34.814443 -111.201572 261 13370ft 367kts
02-Aug-18 18:11 34.800429 -111.317279 261 12485ft 333kts
02-Aug-18 18:12 34.786792 -111.428961 261 11986ft 333kts
02-Aug-18 18:13 34.773177 -111.539618 261 11483ft 330kts
02-Aug-18 18:14 34.759573 -111.649350 261 11125ft 325kts
02-Aug-18 18:15 34.746009 -111.757853 261 11125ft 328kts
02-Aug-18 18:16 34.732293 -111.866780 261 10921ft 319kts
02-Aug-18 18:17 34.719577 -111.966903 261 10237ft 287kts
02-Aug-18 18:18 34.707344 -112.062766 261 10114ft 287kts
02-Aug-18 18:19 34.696099 -112.150316 261 10068ft 243kts
02-Aug-18 18:20 34.695381 -112.230945 285 9441ft 252kts
02-Aug-18 18:21 34.736546 -112.300064 344 7503ft 273kts
02-Aug-18 18:22 34.764810 -112.357522 223 6673ft 218kts
02-Aug-18 18:23 34.714022 -112.372722 184 5715ft 160kts
02-Aug-18 18:24 34.676310 -112.396350 220 5403ft 155kts
02-Aug-18 18:25 34.650686 -112.423539 221 5017ft 21kts
02-Aug-18 18:26 34.649645 -112.426102 222 5017ft 2kts
02-Aug-18 18:27 34.649361 -112.426675 318 5017ft 0kts
02-Aug-18 18:28 34.649506 -112.426745 339 5017ft 0kts
02-Aug-18 18:29 34.649506 -112.426745 339 5017ft 0kts
02-Aug-18 18:30 34.649506 -112.426745 339 5017ft 0kts
02-Aug-18 18:31 34.649506 -112.426745 339 5017ft 0kts
02-Aug-18 18:32 34.649506 -112.426745 339 5017ft 0kts
02-Aug-18 18:33 34.649506 -112.426745 339 5017ft 0kts
02-Aug-18 18:34 34.649506 -112.426745 339 5017ft 0kts
02-Aug-18 18:35 34.649506 -112.426745 339 5017ft 0kts
02-Aug-18 18:36 34.649506 -112.426745 339 5017ft 0kts
02-Aug-18 18:37 34.649506 -112.426745 339 5017ft 0kts
02-Aug-18 18:38 34.649506 -112.426745 339 5017ft 0kts
02-Aug-18 18:39 34.649506 -112.426745 339 5017ft 0kts
02-Aug-18 18:40 34.649506 -112.426745 339 5017ft 0kts

Navigation Log

Ident Type
Flight plan parsing failed, navigation log unavailable